Time;durP1;ratioP1;P1;durP2;ratioP2;P2;SDS_P1;SDS_P2;PMS_P1;PMS_P2;Temp;Humidity;BMP_temperature;BMP_pressure;BME280_temperature;BME280_humidity;BME280_pressure;Samples;Min_cycle;Max_cycle;Signal;HPM_P1;HPM_P2
2022/03/22 00:00:46;;;;;;;49.45;37.67;;;;;;;;;;4940272;29;20102;-76
2022/03/22 00:03:12;;;;;;;44.80;36.13;;;;;;;;;;4945462;29;20036;-77
2022/03/22 00:05:40;;;;;;;44.78;34.88;;;;;;;;;;4949615;29;20082;-78
2022/03/22 00:08:06;;;;;;;44.75;35.60;;;;;;;;;;4945882;29;21219;-77
2022/03/22 00:10:32;;;;;;;49.20;37.13;;;;;;;;;;4950586;29;20462;-78
2022/03/22 00:12:58;;;;;;;45.60;34.92;;;;;;;;;;4950122;29;20118;-77
2022/03/22 00:15:25;;;;;;;47.08;36.13;;;;;;;;;;4942987;29;20055;-77
2022/03/22 00:17:51;;;;;;;46.03;35.83;;;;;;;;;;4941842;29;20047;-77
2022/03/22 00:20:17;;;;;;;44.20;34.45;;;;;;;;;;4950378;29;20139;-76
2022/03/22 00:22:43;;;;;;;44.55;35.20;;;;;;;;;;4929525;29;20481;-76
2022/03/22 00:25:10;;;;;;;42.67;34.78;;;;;;;;;;4946451;29;20391;-77
2022/03/22 00:27:52;;;;;;;47.38;35.15;;;;;;;;;;4941441;29;20043;-77
2022/03/22 00:30:29;;;;;;;43.90;35.25;;;;;;;;;;4946704;29;20098;-77
2022/03/22 00:32:56;;;;;;;48.15;35.83;;;;;;;;;;4925259;29;20043;-77
2022/03/22 00:35:26;;;;;;;45.15;36.63;;;;;;;;;;4950674;29;20043;-77
2022/03/22 00:37:53;;;;;;;48.55;36.33;;;;;;;;;;4945578;28;20047;-77
2022/03/22 00:40:19;;;;;;;49.55;38.33;;;;;;;;;;4951390;29;20086;-77
2022/03/22 00:42:46;;;;;;;45.88;37.83;;;;;;;;;;4938674;29;20409;-77
2022/03/22 00:45:16;;;;;;;49.17;38.33;;;;;;;;;;4955050;29;20146;-77
2022/03/22 00:47:43;;;;;;;50.78;37.92;;;;;;;;;;4954698;29;20051;-77
2022/03/22 00:50:09;;;;;;;46.70;37.45;;;;;;;;;;4954497;29;20058;-77
2022/03/22 00:52:36;;;;;;;50.13;39.20;;;;;;;;;;4954435;29;20063;-77
2022/03/22 00:55:05;;;;;;;49.33;38.33;;;;;;;;;;4947710;29;20071;-77
2022/03/22 00:57:31;;;;;;;53.95;41.63;;;;;;;;;;4950973;29;20493;-77
2022/03/22 01:00:04;;;;;;;52.50;39.80;;;;;;;;;;4950799;28;20039;-77
2022/03/22 01:02:31;;;;;;;52.28;39.55;;;;;;;;;;4941773;29;20039;-77
2022/03/22 01:04:57;;;;;;;50.15;38.15;;;;;;;;;;4953545;29;20044;-77
2022/03/22 01:07:23;;;;;;;49.78;38.20;;;;;;;;;;4947919;28;20043;-77
2022/03/22 01:09:50;;;;;;;51.45;39.63;;;;;;;;;;4931428;29;20075;-77
2022/03/22 01:12:16;;;;;;;53.55;38.38;;;;;;;;;;4946143;29;20149;-78
2022/03/22 01:14:42;;;;;;;47.65;35.47;;;;;;;;;;4952012;29;20713;-77
2022/03/22 01:17:08;;;;;;;46.58;36.42;;;;;;;;;;4947948;28;20050;-78
2022/03/22 01:19:35;;;;;;;47.42;37.67;;;;;;;;;;4948975;29;20039;-77
2022/03/22 01:22:01;;;;;;;44.50;35.83;;;;;;;;;;4944201;29;20481;-78
2022/03/22 01:24:27;;;;;;;47.63;37.10;;;;;;;;;;4946704;29;20043;-77
2022/03/22 01:26:53;;;;;;;49.00;37.63;;;;;;;;;;4949009;28;20098;-76
2022/03/22 01:29:19;;;;;;;51.30;38.10;;;;;;;;;;4953752;29;20047;-78
2022/03/22 01:31:45;;;;;;;46.30;36.38;;;;;;;;;;4950683;29;20043;-76
2022/03/22 01:34:11;;;;;;;49.50;37.00;;;;;;;;;;4951681;29;20130;-77
2022/03/22 01:36:37;;;;;;;44.70;35.55;;;;;;;;;;4932369;29;20044;-77
2022/03/22 01:39:04;;;;;;;45.47;35.75;;;;;;;;;;4942206;29;20808;-77
2022/03/22 01:41:30;;;;;;;43.35;34.88;;;;;;;;;;4949767;29;20054;-76
2022/03/22 01:43:56;;;;;;;44.88;36.05;;;;;;;;;;4951902;29;21733;-76
2022/03/22 01:46:25;;;;;;;46.53;37.45;;;;;;;;;;4944997;29;20561;-77
2022/03/22 01:48:52;;;;;;;47.05;35.80;;;;;;;;;;4943511;28;20097;-78
2022/03/22 01:51:21;;;;;;;51.03;38.40;;;;;;;;;;4951436;29;20090;-78
2022/03/22 01:53:47;;;;;;;47.65;37.25;;;;;;;;;;4952388;28;20494;-77
2022/03/22 01:56:14;;;;;;;47.47;36.97;;;;;;;;;;4944604;29;20043;-77
2022/03/22 01:58:41;;;;;;;46.90;36.33;;;;;;;;;;4932797;29;20095;-78
2022/03/22 02:06:37;;;;;;;46.17;36.10;;;;;;;;;;4965592;23;20707;-78
2022/03/22 02:09:03;;;;;;;47.05;37.47;;;;;;;;;;4956235;28;20054;-79
2022/03/22 02:11:30;;;;;;;50.88;38.47;;;;;;;;;;4955568;28;20255;-78
2022/03/22 02:13:56;;;;;;;49.35;37.45;;;;;;;;;;4955124;28;20043;-78
2022/03/22 02:16:22;;;;;;;52.15;39.80;;;;;;;;;;4940680;28;20051;-78
2022/03/22 02:18:49;;;;;;;56.20;41.83;;;;;;;;;;4956268;28;20047;-78
2022/03/22 02:21:16;;;;;;;48.53;38.22;;;;;;;;;;4953268;28;20047;-79
2022/03/22 02:23:52;;;;;;;55.25;40.78;;;;;;;;;;4940821;28;20046;-78
2022/03/22 02:26:19;;;;;;;51.40;38.75;;;;;;;;;;4946755;29;20410;-78
2022/03/22 02:28:45;;;;;;;54.70;40.33;;;;;;;;;;4936219;28;20039;-79
2022/03/22 02:31:13;;;;;;;51.58;38.13;;;;;;;;;;4940559;28;20070;-79
2022/03/22 02:33:42;;;;;;;49.10;38.70;;;;;;;;;;4956376;28;20051;-79
2022/03/22 02:36:08;;;;;;;48.13;39.08;;;;;;;;;;4955947;28;20042;-79
2022/03/22 02:38:34;;;;;;;47.95;38.25;;;;;;;;;;4953864;28;20038;-79
2022/03/22 02:41:01;;;;;;;51.75;40.08;;;;;;;;;;4951508;28;20059;-79
2022/03/22 02:43:27;;;;;;;51.10;38.30;;;;;;;;;;4955837;28;20051;-79
2022/03/22 02:45:53;;;;;;;45.90;37.42;;;;;;;;;;4945032;28;20047;-79
2022/03/22 02:48:19;;;;;;;50.90;38.10;;;;;;;;;;4956224;28;20374;-79
2022/03/22 02:50:45;;;;;;;53.90;39.47;;;;;;;;;;4953389;28;20053;-79
2022/03/22 02:53:11;;;;;;;45.67;36.85;;;;;;;;;;4955729;28;20090;-79
2022/03/22 02:55:37;;;;;;;50.22;39.40;;;;;;;;;;4953602;28;20054;-79
2022/03/22 02:58:04;;;;;;;50.88;38.65;;;;;;;;;;4938583;28;20141;-79
2022/03/22 03:00:30;;;;;;;50.47;38.03;;;;;;;;;;4947990;28;20074;-79
2022/03/22 03:02:56;;;;;;;48.17;37.15;;;;;;;;;;4955641;28;20133;-79
2022/03/22 03:05:22;;;;;;;51.50;38.38;;;;;;;;;;4955298;28;20478;-79
2022/03/22 03:07:49;;;;;;;51.10;37.83;;;;;;;;;;4950774;28;20078;-79
2022/03/22 03:10:15;;;;;;;48.97;39.20;;;;;;;;;;4939786;28;20145;-79
2022/03/22 03:12:41;;;;;;;46.45;36.47;;;;;;;;;;4952831;28;20701;-79
2022/03/22 03:15:11;;;;;;;49.40;38.28;;;;;;;;;;4938096;28;20126;-79
2022/03/22 03:17:38;;;;;;;45.25;36.03;;;;;;;;;;4953407;28;20041;-79
2022/03/22 03:20:08;;;;;;;44.97;35.97;;;;;;;;;;4955632;28;20568;-79
2022/03/22 03:22:34;;;;;;;45.53;35.58;;;;;;;;;;4955703;28;20043;-78
2022/03/22 03:25:00;;;;;;;45.05;34.92;;;;;;;;;;4955360;28;20122;-78
2022/03/22 03:27:26;;;;;;;46.40;36.85;;;;;;;;;;4952980;28;20125;-78
2022/03/22 03:29:52;;;;;;;47.97;35.50;;;;;;;;;;4949923;28;20041;-78
2022/03/22 03:32:18;;;;;;;43.75;35.38;;;;;;;;;;4939406;28;20039;-78
2022/03/22 03:34:44;;;;;;;43.90;35.08;;;;;;;;;;4951323;28;20066;-79
2022/03/22 03:37:10;;;;;;;46.40;36.95;;;;;;;;;;4952087;28;20043;-79
2022/03/22 03:39:38;;;;;;;45.85;35.13;;;;;;;;;;4953659;28;20038;-78
2022/03/22 03:42:04;;;;;;;45.38;34.70;;;;;;;;;;4952189;28;20081;-79
2022/03/22 03:47:18;;;;;;;44.38;34.92;;;;;;;;;;4944379;28;20047;-78
2022/03/22 03:49:43;;;;;;;47.63;35.22;;;;;;;;;;4938885;28;20121;-79
2022/03/22 03:52:11;;;;;;;44.35;35.20;;;;;;;;;;4954884;28;20082;-79
2022/03/22 03:54:38;;;;;;;43.15;35.97;;;;;;;;;;4970566;28;20039;-79
2022/03/22 03:57:04;;;;;;;42.85;34.50;;;;;;;;;;4954394;28;20134;-79
2022/03/22 03:59:30;;;;;;;45.92;34.92;;;;;;;;;;4952496;28;20049;-79
2022/03/22 04:01:56;;;;;;;41.75;34.75;;;;;;;;;;4955077;28;20042;-79
2022/03/22 04:04:22;;;;;;;46.15;35.53;;;;;;;;;;4951253;28;20045;-79
2022/03/22 04:06:48;;;;;;;39.20;33.13;;;;;;;;;;4955130;28;20062;-79
2022/03/22 04:09:15;;;;;;;47.97;35.58;;;;;;;;;;4954950;28;20472;-79
2022/03/22 04:11:42;;;;;;;41.25;33.00;;;;;;;;;;4953716;28;20495;-79
2022/03/22 04:14:08;;;;;;;45.60;33.95;;;;;;;;;;4938276;28;20748;-79
2022/03/22 04:16:34;;;;;;;46.72;35.00;;;;;;;;;;4954603;29;20129;-79
2022/03/22 04:19:00;;;;;;;44.80;34.60;;;;;;;;;;4954640;28;20064;-79
2022/03/22 04:21:27;;;;;;;43.75;34.03;;;;;;;;;;4942779;28;20472;-79
2022/03/22 04:23:53;;;;;;;43.35;33.95;;;;;;;;;;4957563;28;20117;-79
2022/03/22 04:26:19;;;;;;;41.47;33.08;;;;;;;;;;4958508;28;20062;-79
2022/03/22 04:34:15;;;;;;;43.47;33.95;;;;;;;;;;4955968;28;20063;-79
2022/03/22 04:36:41;;;;;;;41.97;33.13;;;;;;;;;;4956085;28;20043;-79
2022/03/22 04:39:06;;;;;;;43.85;32.90;;;;;;;;;;4957890;28;20045;-79
2022/03/22 04:41:32;;;;;;;40.90;32.97;;;;;;;;;;4956202;28;20042;-79
2022/03/22 04:43:58;;;;;;;43.70;33.72;;;;;;;;;;4955854;28;20045;-79
2022/03/22 04:46:25;;;;;;;44.55;34.50;;;;;;;;;;4954704;28;20078;-79
2022/03/22 04:48:52;;;;;;;43.88;34.45;;;;;;;;;;4958064;28;20133;-79
2022/03/22 04:56:47;;;;;;;42.47;33.17;;;;;;;;;;4958072;28;20062;-79
2022/03/22 04:59:14;;;;;;;41.83;32.80;;;;;;;;;;4947183;29;20133;-79
2022/03/22 05:01:40;;;;;;;45.90;34.55;;;;;;;;;;4940350;28;20058;-79
2022/03/22 05:04:06;;;;;;;45.13;33.92;;;;;;;;;;4969014;28;20126;-79
2022/03/22 05:06:35;;;;;;;43.90;34.72;;;;;;;;;;4957871;28;20125;-79
2022/03/22 05:09:02;;;;;;;41.75;33.15;;;;;;;;;;4956220;28;20214;-79
2022/03/22 05:11:28;;;;;;;43.33;33.05;;;;;;;;;;4957753;28;20053;-79
2022/03/22 05:13:54;;;;;;;42.67;33.42;;;;;;;;;;4957206;28;20054;-79
2022/03/22 05:16:21;;;;;;;39.17;32.78;;;;;;;;;;4958020;28;20041;-79
2022/03/22 05:18:48;;;;;;;44.78;35.67;;;;;;;;;;4942258;28;20370;-79
2022/03/22 05:21:14;;;;;;;42.15;34.10;;;;;;;;;;4957713;28;20050;-79
2022/03/22 05:23:40;;;;;;;43.28;34.42;;;;;;;;;;4958132;28;20401;-79
2022/03/22 05:26:06;;;;;;;47.03;34.63;;;;;;;;;;4950915;28;20389;-80
2022/03/22 05:28:33;;;;;;;46.22;34.85;;;;;;;;;;4936103;28;20772;-79
2022/03/22 05:30:59;;;;;;;44.78;35.58;;;;;;;;;;4957471;28;20089;-79
2022/03/22 05:33:25;;;;;;;44.50;35.13;;;;;;;;;;4957941;28;20078;-79
2022/03/22 05:35:51;;;;;;;42.58;33.03;;;;;;;;;;4956810;28;20468;-80
2022/03/22 05:38:17;;;;;;;41.78;33.05;;;;;;;;;;4956770;28;20046;-79
2022/03/22 05:40:43;;;;;;;41.53;33.28;;;;;;;;;;4970066;28;20420;-79
2022/03/22 05:43:09;;;;;;;44.83;34.72;;;;;;;;;;4950957;28;20046;-79
2022/03/22 05:45:36;;;;;;;48.80;34.38;;;;;;;;;;4940557;28;20039;-80
2022/03/22 05:48:03;;;;;;;45.38;33.83;;;;;;;;;;4957205;28;20038;-79
2022/03/22 05:50:29;;;;;;;45.22;34.60;;;;;;;;;;4956777;28;20514;-79
2022/03/22 05:52:55;;;;;;;43.03;33.80;;;;;;;;;;4957012;28;20082;-79
2022/03/22 05:55:21;;;;;;;40.90;32.60;;;;;;;;;;4956165;28;20057;-79
2022/03/22 05:57:46;;;;;;;43.30;34.88;;;;;;;;;;4957481;28;20050;-79
2022/03/22 06:00:13;;;;;;;44.33;34.47;;;;;;;;;;4952931;28;20504;-79
2022/03/22 06:02:40;;;;;;;46.67;33.95;;;;;;;;;;4956188;28;20039;-79
2022/03/22 06:05:08;;;;;;;54.85;34.72;;;;;;;;;;4956866;28;20094;-80
2022/03/22 06:07:34;;;;;;;45.15;33.30;;;;;;;;;;4955073;28;20057;-79
2022/03/22 06:10:00;;;;;;;44.22;33.67;;;;;;;;;;4956774;28;20042;-79
2022/03/22 06:12:26;;;;;;;52.05;32.83;;;;;;;;;;4956662;28;20392;-80
2022/03/22 06:15:14;;;;;;;45.22;34.45;;;;;;;;;;4956648;28;20043;-79
2022/03/22 06:17:38;;;;;;;46.28;34.30;;;;;;;;;;4953483;28;20042;-79
2022/03/22 06:20:06;;;;;;;41.70;34.15;;;;;;;;;;4956155;28;20481;-80
2022/03/22 06:22:32;;;;;;;46.30;34.05;;;;;;;;;;4954576;28;20039;-80
2022/03/22 06:24:58;;;;;;;41.95;33.45;;;;;;;;;;4955828;28;20448;-80
2022/03/22 06:27:24;;;;;;;41.92;32.85;;;;;;;;;;4956110;28;20078;-80
2022/03/22 06:29:50;;;;;;;46.30;34.67;;;;;;;;;;4956197;28;20043;-80
2022/03/22 06:32:15;;;;;;;43.42;34.28;;;;;;;;;;4953663;28;20101;-79
2022/03/22 06:34:41;;;;;;;40.50;30.88;;;;;;;;;;4956212;28;20081;-80
2022/03/22 06:37:07;;;;;;;43.28;33.53;;;;;;;;;;4954892;28;20735;-79
2022/03/22 06:39:33;;;;;;;43.25;33.28;;;;;;;;;;4936354;28;20074;-80
2022/03/22 06:41:59;;;;;;;39.88;32.85;;;;;;;;;;4954385;28;20081;-80
2022/03/22 06:44:25;;;;;;;40.88;32.25;;;;;;;;;;4954784;28;20130;-79
2022/03/22 06:46:51;;;;;;;39.58;31.75;;;;;;;;;;4955710;28;20042;-79
2022/03/22 06:49:17;;;;;;;43.40;33.72;;;;;;;;;;4956133;28;20051;-79
2022/03/22 06:51:44;;;;;;;41.50;33.33;;;;;;;;;;4953087;28;20042;-79
2022/03/22 06:54:10;;;;;;;43.45;33.53;;;;;;;;;;4938930;28;20671;-80
2022/03/22 06:56:36;;;;;;;38.38;31.42;;;;;;;;;;4955624;28;20556;-80
2022/03/22 06:59:02;;;;;;;40.70;32.03;;;;;;;;;;4940138;28;20078;-79
2022/03/22 07:01:28;;;;;;;43.33;34.42;;;;;;;;;;4939114;28;20043;-80
2022/03/22 07:03:54;;;;;;;39.67;32.22;;;;;;;;;;4955427;28;20047;-79
2022/03/22 07:06:20;;;;;;;39.17;33.08;;;;;;;;;;4939125;28;20442;-80
2022/03/22 07:08:47;;;;;;;39.10;33.17;;;;;;;;;;4934736;28;20129;-79
2022/03/22 07:13:57;;;;;;;40.75;32.17;;;;;;;;;;4955442;28;20062;-80
2022/03/22 07:16:27;;;;;;;39.55;32.20;;;;;;;;;;4955106;28;20217;-79
2022/03/22 07:18:53;;;;;;;41.17;32.63;;;;;;;;;;4953192;28;20046;-79
2022/03/22 07:21:19;;;;;;;37.47;30.30;;;;;;;;;;4948468;28;20047;-79
2022/03/22 07:23:45;;;;;;;39.05;30.48;;;;;;;;;;4948223;28;20054;-79
2022/03/22 07:26:11;;;;;;;39.95;30.75;;;;;;;;;;4947129;28;20039;-79
2022/03/22 07:28:37;;;;;;;34.60;29.80;;;;;;;;;;4952026;28;20484;-79
2022/03/22 07:31:04;;;;;;;36.88;31.25;;;;;;;;;;4952658;28;20058;-79
2022/03/22 07:33:30;;;;;;;34.88;28.90;;;;;;;;;;4955573;28;20038;-79
2022/03/22 07:35:56;;;;;;;35.17;30.52;;;;;;;;;;4954291;28;20477;-80
2022/03/22 07:38:22;;;;;;;34.47;29.45;;;;;;;;;;4952711;28;20034;-79
2022/03/22 07:40:48;;;;;;;35.55;28.63;;;;;;;;;;4950929;28;20043;-79
2022/03/22 07:43:14;;;;;;;34.30;28.33;;;;;;;;;;4952709;28;20058;-79
2022/03/22 07:45:40;;;;;;;35.05;28.60;;;;;;;;;;4953635;28;20358;-79
2022/03/22 07:48:06;;;;;;;33.63;27.95;;;;;;;;;;4953145;28;20047;-79
2022/03/22 07:53:16;;;;;;;30.25;26.95;;;;;;;;;;4954367;28;20049;-79
2022/03/22 07:55:43;;;;;;;33.28;28.38;;;;;;;;;;4952756;28;20055;-79
2022/03/22 07:58:10;;;;;;;33.72;28.02;;;;;;;;;;4938130;28;20046;-79
2022/03/22 08:00:38;;;;;;;33.35;26.73;;;;;;;;;;4936920;28;20062;-79
2022/03/22 08:03:04;;;;;;;30.75;26.63;;;;;;;;;;4953891;28;20053;-79
2022/03/22 08:05:31;;;;;;;33.22;26.10;;;;;;;;;;4948739;29;20039;-79
2022/03/22 08:07:57;;;;;;;31.55;25.85;;;;;;;;;;4926220;28;20500;-79
2022/03/22 08:10:23;;;;;;;33.30;25.15;;;;;;;;;;4938460;28;20440;-79
2022/03/22 08:12:50;;;;;;;27.80;24.20;;;;;;;;;;4951028;28;20042;-79
2022/03/22 08:15:17;;;;;;;30.95;26.05;;;;;;;;;;4952368;28;20097;-79
2022/03/22 08:17:43;;;;;;;30.77;25.02;;;;;;;;;;4938666;28;20046;-79
2022/03/22 08:20:10;;;;;;;27.67;24.10;;;;;;;;;;4938160;28;20047;-78
2022/03/22 08:22:52;;;;;;;30.45;24.45;;;;;;;;;;4949358;28;20045;-78
2022/03/22 08:25:22;;;;;;;29.20;23.48;;;;;;;;;;4934311;28;20125;-78
2022/03/22 08:27:48;;;;;;;29.20;24.73;;;;;;;;;;4954907;28;20718;-80
2022/03/22 08:30:17;;;;;;;30.90;23.58;;;;;;;;;;4952068;28;20042;-80
2022/03/22 08:32:43;;;;;;;26.25;22.17;;;;;;;;;;4939166;28;20047;-80
2022/03/22 08:35:09;;;;;;;32.60;23.70;;;;;;;;;;4951558;28;20046;-79
2022/03/22 08:37:36;;;;;;;34.67;23.38;;;;;;;;;;4936621;28;20066;-79
2022/03/22 08:40:02;;;;;;;27.75;23.15;;;;;;;;;;4938873;28;20046;-79
2022/03/22 08:42:28;;;;;;;27.90;22.60;;;;;;;;;;4943113;28;20508;-79
2022/03/22 08:44:54;;;;;;;27.50;22.55;;;;;;;;;;4952105;28;20038;-79
2022/03/22 08:47:20;;;;;;;33.85;23.00;;;;;;;;;;4951456;28;20528;-79
2022/03/22 08:49:48;;;;;;;27.20;22.23;;;;;;;;;;4950145;28;20043;-79
2022/03/22 08:52:14;;;;;;;28.13;22.63;;;;;;;;;;4951659;28;20050;-79
2022/03/22 08:54:40;;;;;;;25.15;22.10;;;;;;;;;;4935835;28;20459;-80
2022/03/22 08:57:06;;;;;;;26.00;20.38;;;;;;;;;;4954094;28;20074;-80
2022/03/22 08:59:32;;;;;;;27.23;23.20;;;;;;;;;;4952528;28;20052;-80
2022/03/22 09:01:58;;;;;;;28.52;22.02;;;;;;;;;;4940038;28;20053;-80
2022/03/22 09:07:09;;;;;;;30.83;21.33;;;;;;;;;;4966655;28;20444;-80
2022/03/22 09:09:35;;;;;;;27.88;22.20;;;;;;;;;;4957979;28;20047;-80
2022/03/22 09:12:01;;;;;;;30.40;24.27;;;;;;;;;;4949562;29;20627;-80
2022/03/22 09:14:28;;;;;;;30.42;23.50;;;;;;;;;;4956676;28;20362;-79
2022/03/22 09:16:54;;;;;;;28.27;22.30;;;;;;;;;;4936689;28;20046;-79
2022/03/22 09:19:20;;;;;;;25.27;21.20;;;;;;;;;;4952714;28;20583;-79
2022/03/22 09:21:46;;;;;;;26.38;21.00;;;;;;;;;;4953133;28;20077;-80
2022/03/22 09:24:12;;;;;;;27.17;22.95;;;;;;;;;;4955100;28;20050;-79
2022/03/22 09:26:38;;;;;;;30.25;22.20;;;;;;;;;;4959332;28;20026;-79
2022/03/22 09:29:04;;;;;;;28.05;22.55;;;;;;;;;;4941387;28;20055;-80
2022/03/22 09:31:30;;;;;;;28.58;21.83;;;;;;;;;;4954708;28;20515;-79
2022/03/22 09:33:57;;;;;;;26.17;21.30;;;;;;;;;;4954509;28;20484;-79
2022/03/22 09:36:23;;;;;;;25.55;21.70;;;;;;;;;;4952614;28;20484;-81
2022/03/22 09:38:49;;;;;;;27.77;22.85;;;;;;;;;;4932893;28;20626;-81
2022/03/22 09:41:16;;;;;;;28.55;22.40;;;;;;;;;;4957651;28;20054;-81
2022/03/22 09:43:49;;;;;;;27.15;21.50;;;;;;;;;;4957793;28;20043;-81
2022/03/22 09:46:19;;;;;;;28.50;22.80;;;;;;;;;;4939966;28;20034;-81
2022/03/22 09:48:46;;;;;;;31.33;22.20;;;;;;;;;;4957973;28;20041;-81
2022/03/22 09:53:57;;;;;;;24.67;21.90;;;;;;;;;;4955624;28;20504;-81
2022/03/22 09:56:26;;;;;;;26.25;21.42;;;;;;;;;;4941898;28;20125;-81
2022/03/22 09:58:52;;;;;;;27.27;19.58;;;;;;;;;;4957592;28;20089;-81
2022/03/22 10:01:18;;;;;;;27.33;19.27;;;;;;;;;;4957951;28;20042;-81
2022/03/22 10:03:54;;;;;;;26.58;20.42;;;;;;;;;;4957244;28;20580;-81
2022/03/22 10:06:22;;;;;;;26.33;19.95;;;;;;;;;;4957663;28;20088;-81
2022/03/22 10:08:51;;;;;;;24.70;19.83;;;;;;;;;;4953942;28;20102;-80
2022/03/22 10:11:17;;;;;;;27.00;20.88;;;;;;;;;;4950376;28;20050;-80
2022/03/22 10:13:57;;;;;;;25.65;19.33;;;;;;;;;;4949227;28;20038;-81
2022/03/22 10:16:23;;;;;;;27.67;22.33;;;;;;;;;;4957349;28;20521;-81
2022/03/22 10:18:49;;;;;;;26.80;20.00;;;;;;;;;;4957074;28;20547;-81
2022/03/22 10:21:15;;;;;;;25.08;20.08;;;;;;;;;;4955654;28;20042;-84
2022/03/22 10:23:52;;;;;;;27.88;20.08;;;;;;;;;;4957922;28;20066;-85
2022/03/22 10:26:18;;;;;;;27.80;20.42;;;;;;;;;;4958321;28;20042;-85
2022/03/22 10:28:52;;;;;;;27.80;20.15;;;;;;;;;;4942850;28;20051;-85
2022/03/22 10:31:18;;;;;;;24.88;19.67;;;;;;;;;;4958228;28;20057;-85
2022/03/22 10:33:51;;;;;;;27.38;21.05;;;;;;;;;;4957760;28;20043;-85
2022/03/22 10:36:18;;;;;;;26.33;20.50;;;;;;;;;;4957559;28;20051;-86
2022/03/22 10:38:59;;;;;;;27.98;20.25;;;;;;;;;;4957703;28;20046;-86
2022/03/22 10:41:29;;;;;;;24.20;19.48;;;;;;;;;;4942097;28;20136;-85
2022/03/22 10:44:06;;;;;;;29.45;20.30;;;;;;;;;;4957976;28;20041;-85
2022/03/22 10:46:32;;;;;;;24.13;19.35;;;;;;;;;;4953254;28;20039;-84
2022/03/22 10:49:12;;;;;;;26.23;19.23;;;;;;;;;;4952124;28;20042;-84
2022/03/22 10:51:45;;;;;;;28.30;20.90;;;;;;;;;;4946244;28;20058;-85
2022/03/22 10:54:17;;;;;;;31.23;21.02;;;;;;;;;;4956442;28;20046;-85
2022/03/22 10:56:43;;;;;;;;;;;;;;;;;;4958249;28;20493;-85
2022/03/22 10:59:10;;;;;;;26.42;20.50;;;;;;;;;;4941442;28;19925;-84
2022/03/22 11:01:36;;;;;;;24.85;19.45;;;;;;;;;;4955945;28;20056;-85
2022/03/22 11:04:04;;;;;;;26.63;19.35;;;;;;;;;;4956891;28;20080;-83
2022/03/22 11:06:31;;;;;;;24.00;18.70;;;;;;;;;;4957297;28;20086;-84
2022/03/22 11:08:57;;;;;;;27.75;19.98;;;;;;;;;;4941442;28;20054;-84
2022/03/22 11:11:24;;;;;;;26.73;20.45;;;;;;;;;;4941905;28;20047;-84
2022/03/22 11:13:50;;;;;;;25.02;20.58;;;;;;;;;;4958525;28;20050;-84
2022/03/22 11:16:16;;;;;;;28.15;19.48;;;;;;;;;;4956909;28;20042;-85
2022/03/22 11:18:43;;;;;;;25.65;19.85;;;;;;;;;;4936167;28;20074;-85
2022/03/22 11:21:09;;;;;;;27.85;20.88;;;;;;;;;;4935515;28;20098;-85
2022/03/22 11:23:35;;;;;;;26.90;19.55;;;;;;;;;;4956766;28;20047;-85
2022/03/22 11:26:16;;;;;;;23.30;18.35;;;;;;;;;;4957447;28;20134;-84
2022/03/22 11:28:43;;;;;;;25.60;18.80;;;;;;;;;;4956803;28;20043;-85
2022/03/22 11:31:09;;;;;;;29.48;22.02;;;;;;;;;;4957218;28;20081;-85
2022/03/22 11:36:21;;;;;;;25.77;18.77;;;;;;;;;;4957327;28;20069;-85
2022/03/22 11:38:49;;;;;;;26.48;20.38;;;;;;;;;;4954774;28;20441;-85
2022/03/22 11:44:08;;;;;;;29.95;20.95;;;;;;;;;;4957103;28;20050;-86
2022/03/22 11:46:34;;;;;;;27.45;21.60;;;;;;;;;;4956607;28;20072;-84
2022/03/22 11:49:11;;;;;;;25.00;19.85;;;;;;;;;;4974837;28;20043;-83
2022/03/22 11:51:47;;;;;;;26.70;21.90;;;;;;;;;;4955452;28;20046;-84
2022/03/22 11:54:13;;;;;;;27.38;21.45;;;;;;;;;;4938465;28;20472;-84
2022/03/22 11:56:46;;;;;;;35.65;22.27;;;;;;;;;;4950342;28;20528;-83
2022/03/22 11:59:15;;;;;;;27.45;22.40;;;;;;;;;;4939398;28;20051;-84
2022/03/22 12:01:41;;;;;;;26.83;22.10;;;;;;;;;;4954886;28;20113;-84
2022/03/22 12:04:15;;;;;;;24.95;19.80;;;;;;;;;;4948864;28;20043;-84
2022/03/22 12:06:42;;;;;;;29.17;20.17;;;;;;;;;;4937193;28;20062;-84
2022/03/22 12:09:08;;;;;;;28.58;19.90;;;19.40;68.50;;;;;;4956409;28;20047;-84
2022/03/22 12:11:35;;;;;;;24.83;19.13;;;19.00;70.20;;;;;;4955665;28;20046;-84
2022/03/22 12:14:03;;;;;;;26.13;20.50;;;19.00;67.70;;;;;;4948589;28;20043;-84
2022/03/22 12:16:28;;;;;;;28.23;21.95;;;19.10;69.20;;;;;;4950491;28;20093;-83
2022/03/22 12:18:57;;;;;;;26.38;21.38;;;18.90;64.90;;;;;;4940237;28;20091;-84
2022/03/22 12:21:23;;;;;;;29.48;20.25;;;18.90;66.40;;;;;;4954409;28;20078;-84
2022/03/22 12:23:49;;;;;;;27.60;19.90;;;19.00;67.40;;;;;;4946296;28;20094;-84
2022/03/22 12:26:14;;;;;;;28.38;20.83;;;19.00;61.90;;;;;;4956286;28;20038;-84
2022/03/22 12:28:48;;;;;;;28.50;18.95;;;;;;;;;;4950400;28;20096;-84
2022/03/22 12:31:14;;;;;;;25.13;18.85;;;19.20;65.20;;;;;;4949133;28;20047;-84
2022/03/22 12:33:40;;;;;;;24.52;19.15;;;19.20;64.90;;;;;;4955829;28;20049;-84
2022/03/22 12:36:06;;;;;;;27.58;18.35;;;19.20;66.70;;;;;;4959797;28;20058;-84
2022/03/22 12:38:32;;;;;;;27.33;19.33;;;19.30;66.90;;;;;;4953489;28;20190;-84
2022/03/22 12:40:57;;;;;;;26.65;18.60;;;19.30;67.20;;;;;;4960417;28;20042;-84
2022/03/22 12:43:23;;;;;;;23.15;17.80;;;19.40;66.90;;;;;;4955510;28;20039;-84
2022/03/22 12:45:49;;;;;;;23.95;19.70;;;19.40;66.00;;;;;;4958618;28;20113;-85
2022/03/22 12:48:19;;;;;;;26.15;18.63;;;19.40;65.20;;;;;;4953584;28;20049;-85
2022/03/22 12:50:45;;;;;;;23.90;18.77;;;19.40;65.10;;;;;;4939391;28;20047;-84
2022/03/22 12:53:11;;;;;;;25.75;19.83;;;19.50;65.60;;;;;;4959081;28;20050;-85
2022/03/22 12:55:40;;;;;;;27.48;18.60;;;19.50;66.20;;;;;;4957956;28;20043;-84
2022/03/22 12:58:06;;;;;;;28.02;20.27;;;19.70;65.20;;;;;;4952952;28;20043;-84
2022/03/22 13:00:34;;;;;;;28.20;19.10;;;19.60;63.90;;;;;;4956784;28;20040;-84
2022/03/22 13:03:16;;;;;;;28.50;19.45;;;19.60;61.20;;;;;;4952882;29;20135;-83
2022/03/22 13:05:45;;;;;;;23.65;17.75;;;19.50;62.40;;;;;;4950570;29;20043;-84
2022/03/22 13:08:23;;;;;;;27.23;20.98;;;19.60;65.20;;;;;;4955812;29;20438;-81
2022/03/22 13:16:29;;;;;;;27.98;19.02;;;19.60;59.50;;;;;;4950967;29;20428;-81
2022/03/22 13:19:00;;;;;;;27.17;19.00;;;19.70;63.80;;;;;;4939219;29;20082;-81
2022/03/22 13:21:30;;;;;;;26.08;19.80;;;19.70;64.70;;;;;;4954730;29;20047;-81
2022/03/22 13:24:05;;;;;;;28.00;19.00;;;19.70;61.50;;;;;;4951082;29;20524;-81
2022/03/22 13:26:32;;;;;;;26.73;19.52;;;19.80;64.90;;;;;;4954055;29;20076;-81
2022/03/22 13:28:58;;;;;;;29.10;20.15;;;19.80;61.50;;;;;;4938896;29;20074;-81
2022/03/22 13:31:25;;;;;;;28.25;17.38;;;19.70;57.60;;;;;;4955111;29;20500;-81
2022/03/22 13:33:55;;;;;;;28.70;18.75;;;19.80;64.40;;;;;;4954779;29;20130;-81
2022/03/22 13:36:22;;;;;;;26.92;18.92;;;19.80;65.20;;;;;;4950913;29;20048;-81
2022/03/22 13:38:52;;;;;;;30.67;19.63;;;;;;;;;;4954968;29;20035;-81
2022/03/22 13:41:27;;;;;;;25.80;17.88;;;19.80;59.20;;;;;;4930197;29;20036;-82
2022/03/22 13:43:53;;;;;;;26.25;18.77;;;19.80;63.00;;;;;;4931505;29;20095;-81
2022/03/22 13:46:19;;;;;;;25.13;18.67;;;19.80;63.20;;;;;;4953726;28;20047;-81
2022/03/22 13:48:49;;;;;;;28.45;19.65;;;19.80;64.90;;;;;;4953833;29;20043;-81
2022/03/22 13:51:24;;;;;;;27.40;19.95;;;19.90;63.00;;;;;;4950824;29;20042;-81
2022/03/22 13:53:53;;;;;;;28.75;19.65;;;19.80;61.90;;;;;;4938413;29;20504;-81
2022/03/22 13:56:23;;;;;;;26.92;18.63;;;19.80;60.60;;;;;;4954697;29;20061;-81
2022/03/22 13:58:49;;;;;;;27.17;19.45;;;19.90;64.20;;;;;;4952978;28;20043;-81
2022/03/22 14:01:15;;;;;;;25.80;17.65;;;19.80;62.00;;;;;;4954260;29;20417;-81
2022/03/22 14:03:42;;;;;;;28.42;18.67;;;19.90;64.90;;;;;;4954259;29;20058;-81
2022/03/22 14:06:08;;;;;;;34.33;20.92;;;19.90;65.70;;;;;;4954280;29;20055;-81
2022/03/22 14:08:35;;;;;;;28.08;18.92;;;19.90;62.80;;;;;;4954100;29;20090;-81
2022/03/22 14:11:02;;;;;;;25.40;18.05;;;19.90;63.60;;;;;;4938286;29;20043;-81
2022/03/22 14:13:31;;;;;;;28.05;19.90;;;19.80;63.00;;;;;;4953856;29;20039;-81
2022/03/22 14:15:57;;;;;;;25.02;18.73;;;19.90;62.50;;;;;;4943329;28;20118;-81
2022/03/22 14:18:23;;;;;;;27.55;18.20;;;19.80;60.00;;;;;;4934982;29;20126;-81
2022/03/22 14:20:50;;;;;;;25.05;17.85;;;19.90;62.00;;;;;;4959552;23;20153;-82
2022/03/22 14:23:16;;;;;;;22.35;16.88;;;19.70;60.80;;;;;;4939346;29;20054;-82
2022/03/22 14:25:42;;;;;;;23.92;17.13;;;19.80;65.60;;;;;;4955054;29;20401;-82
2022/03/22 14:28:08;;;;;;;24.42;17.10;;;19.80;64.70;;;;;;4955935;29;20040;-82
2022/03/22 14:30:36;;;;;;;24.60;18.75;;;19.80;65.20;;;;;;4952060;29;20075;-83
2022/03/22 14:33:04;;;;;;;23.98;17.60;;;19.80;56.60;;;;;;4955573;29;20067;-83
2022/03/22 14:35:50;;;;;;;24.60;18.17;;;19.80;64.50;;;;;;4939662;29;20039;-83
2022/03/22 14:38:20;;;;;;;26.88;18.92;;;19.80;65.00;;;;;;4967893;28;20062;-82